createdAt,value
2023-03-06T00:00:40.239Z,100272.69
2023-03-06T00:03:07.191Z,100266.50
2023-03-06T00:05:33.904Z,100268.44
2023-03-06T00:08:00.673Z,100270.34
2023-03-06T00:10:30.192Z,100258.84
2023-03-06T00:12:59.481Z,100256.41
2023-03-06T00:15:26.962Z,100245.22
2023-03-06T00:17:54.294Z,100256.13
2023-03-06T00:20:21.166Z,100249.94
2023-03-06T00:22:48.732Z,100249.22
2023-03-06T00:25:17.582Z,100244.84
2023-03-06T00:27:46.244Z,100230.88
2023-03-06T00:30:15.178Z,100231.84
2023-03-06T00:32:42.342Z,100228.31
2023-03-06T00:35:09.926Z,100223.09
2023-03-06T00:37:36.623Z,100225.88
2023-03-06T00:40:05.123Z,100225.03
2023-03-06T00:42:31.717Z,100223.31
2023-03-06T00:44:59.689Z,100221.63
2023-03-06T00:47:26.362Z,100211.06
2023-03-06T00:49:53.888Z,100201.38
2023-03-06T00:52:20.901Z,100202.31
2023-03-06T00:54:47.831Z,100189.84
2023-03-06T00:57:14.460Z,100194.31
2023-03-06T00:59:41.167Z,100188.03
2023-03-06T01:02:09.826Z,100177.34
2023-03-06T01:04:36.536Z,100181.72
2023-03-06T01:07:03.434Z,100175.63
2023-03-06T01:09:30.028Z,100167.63
2023-03-06T01:11:56.865Z,100156.94
2023-03-06T01:14:24.162Z,100147.13
2023-03-06T01:16:51.174Z,100137.31
2023-03-06T01:19:19.276Z,100137.31
2023-03-06T01:21:46.374Z,100135.59
2023-03-06T01:24:13.038Z,100126.63
2023-03-06T01:26:39.720Z,100123.97
2023-03-06T01:29:06.466Z,100113.16
2023-03-06T01:31:33.591Z,100124.69
2023-03-06T01:34:01.265Z,100113.16
2023-03-06T01:36:29.820Z,100104.16
2023-03-06T01:38:57.237Z,100114.03
2023-03-06T01:41:24.068Z,100103.34
2023-03-06T01:43:51.053Z,100099.69
2023-03-06T01:46:33.550Z,100102.34
2023-03-06T01:49:04.593Z,100098.63
2023-03-06T01:51:35.653Z,100093.13
2023-03-06T01:54:06.740Z,100092.16
2023-03-06T01:56:33.714Z,100086.84
2023-03-06T01:59:00.960Z,100081.50
2023-03-06T02:01:28.968Z,100081.59
2023-03-06T02:03:56.031Z,100077.25
2023-03-06T02:06:22.626Z,100081.75
2023-03-06T02:08:52.592Z,100073.75
2023-03-06T02:11:21.678Z,100075.56
2023-03-06T02:13:49.635Z,100074.69
2023-03-06T02:16:17.652Z,100064.03
2023-03-06T02:18:45.664Z,100067.66
2023-03-06T02:21:19.507Z,100064.03
2023-03-06T02:23:56.282Z,100064.88
2023-03-06T02:26:26.838Z,100055.91
2023-03-06T02:28:53.660Z,100063.06
2023-03-06T02:31:23.548Z,100057.72
2023-03-06T02:34:05.208Z,100048.88
2023-03-06T02:36:33.873Z,100047.03
2023-03-06T02:39:01.421Z,100052.38
2023-03-06T02:41:29.504Z,100053.09
2023-03-06T02:43:56.080Z,100048.59
2023-03-06T02:46:22.798Z,100040.59
2023-03-06T02:48:49.767Z,100047.66
2023-03-06T02:51:16.543Z,100046.69
2023-03-06T02:53:43.094Z,100045.56
2023-03-06T02:56:09.690Z,100025.91
2023-03-06T02:58:37.820Z,100030.31
2023-03-06T03:01:05.218Z,100025.66
2023-03-06T03:03:31.916Z,100026.53
2023-03-06T03:05:58.512Z,100022.03
2023-03-06T03:08:25.118Z,100027.38
2023-03-06T03:10:51.669Z,100027.38
2023-03-06T03:13:18.311Z,100024.69
2023-03-06T03:15:46.329Z,100029.19
2023-03-06T03:18:12.897Z,100025.56
2023-03-06T03:20:42.269Z,100022.88
2023-03-06T03:23:08.855Z,100022.03
2023-03-06T03:25:35.417Z,100026.41
2023-03-06T03:28:02.088Z,100026.25
2023-03-06T03:30:28.652Z,100027.13
2023-03-06T03:32:56.631Z,100028.81
2023-03-06T03:35:23.247Z,100032.47
2023-03-06T03:37:50.164Z,100032.47
2023-03-06T03:40:17.091Z,100051.03
2023-03-06T03:42:43.901Z,100051.16
2023-03-06T03:45:11.398Z,100060.16
2023-03-06T03:47:38.164Z,100057.72
2023-03-06T03:50:07.643Z,100068.88
2023-03-06T03:52:34.296Z,100068.25
2023-03-06T03:55:01.035Z,100060.50
2023-03-06T03:57:27.607Z,100057.97
2023-03-06T03:59:55.175Z,100056.47
2023-03-06T04:02:21.946Z,100055.78
2023-03-06T04:04:48.937Z,100059.66
2023-03-06T04:09:57.423Z,100058.06
2023-03-06T04:12:24.809Z,100054.78
2023-03-06T04:14:51.879Z,100050.56
2023-03-06T04:17:18.497Z,100055.16
2023-03-06T04:19:45.066Z,100056.00
2023-03-06T04:22:11.812Z,100051.88
2023-03-06T04:24:39.803Z,100059.16
2023-03-06T04:27:06.416Z,100059.16
2023-03-06T04:29:33.038Z,100068.97
2023-03-06T04:31:59.646Z,100069.84
2023-03-06T04:34:26.261Z,100069.84
2023-03-06T04:36:53.094Z,100084.13
2023-03-06T04:39:19.900Z,100071.66
2023-03-06T04:41:47.909Z,100071.75
2023-03-06T04:44:14.915Z,100079.00
2023-03-06T04:46:41.639Z,100074.66
2023-03-06T04:49:08.347Z,100071.25
2023-03-06T04:51:35.173Z,100068.72
2023-03-06T04:54:01.804Z,100073.31
2023-03-06T04:56:28.558Z,100081.44
2023-03-06T04:58:56.529Z,100070.91
2023-03-06T05:01:23.170Z,100075.47
2023-03-06T05:03:49.789Z,100081.69
2023-03-06T05:06:16.442Z,100071.00
2023-03-06T05:08:43.061Z,100082.63
2023-03-06T05:11:09.713Z,100082.53
2023-03-06T05:13:36.319Z,100074.53
2023-03-06T05:16:06.008Z,100079.75
2023-03-06T05:18:33.721Z,100086.16
2023-03-06T05:21:00.704Z,100076.34
2023-03-06T05:23:27.961Z,100077.44
2023-03-06T05:25:54.695Z,100083.84
2023-03-06T05:28:21.692Z,100082.97
2023-03-06T05:30:49.012Z,100088.56
2023-03-06T05:33:17.110Z,100087.72
2023-03-06T05:35:45.835Z,100088.81
2023-03-06T05:38:12.643Z,100091.56
2023-03-06T05:40:40.833Z,100091.56
2023-03-06T05:43:07.929Z,100089.88
2023-03-06T05:45:35.018Z,100087.19
2023-03-06T05:48:01.755Z,100085.53
2023-03-06T05:50:29.967Z,100082.88
2023-03-06T05:52:56.616Z,100088.19
2023-03-06T05:55:23.302Z,100085.38
2023-03-06T05:57:50.144Z,100083.69
2023-03-06T06:00:17.981Z,100083.69
2023-03-06T06:02:45.459Z,100081.00
2023-03-06T06:05:13.303Z,100085.53
2023-03-06T06:07:41.474Z,100087.19
2023-03-06T06:10:10.818Z,100084.69
2023-03-06T06:12:37.767Z,100080.41
2023-03-06T06:15:05.598Z,100079.44
2023-03-06T06:17:32.310Z,100086.59
2023-03-06T06:19:59.116Z,100076.78
2023-03-06T06:22:25.841Z,100087.34
2023-03-06T06:24:53.743Z,100090.97
2023-03-06T06:27:20.469Z,100090.13
2023-03-06T06:29:50.508Z,100090.13
2023-03-06T06:32:17.200Z,100098.84
2023-03-06T06:34:43.839Z,100097.88
2023-03-06T06:37:10.517Z,100102.00
2023-03-06T06:39:37.204Z,100108.09
2023-03-06T06:42:28.211Z,100109.91
2023-03-06T06:44:52.249Z,100101.91
2023-03-06T06:47:23.128Z,100099.97
2023-03-06T06:49:51.249Z,100106.03
2023-03-06T06:52:18.143Z,100109.44
2023-03-06T06:54:44.893Z,100103.97
2023-03-06T06:57:13.115Z,100110.06
2023-03-06T06:59:40.000Z,100108.59
2023-03-06T07:02:06.721Z,100107.84
2023-03-06T07:04:33.402Z,100110.50
2023-03-06T07:07:00.126Z,100101.44
2023-03-06T07:09:26.707Z,100102.06
2023-03-06T07:11:53.368Z,100103.63
2023-03-06T07:14:21.475Z,100107.88
2023-03-06T07:16:48.098Z,100107.66
2023-03-06T07:19:14.876Z,100096.72
2023-03-06T07:21:41.554Z,100099.28
2023-03-06T07:24:08.382Z,100106.19
2023-03-06T07:26:35.104Z,100095.41
2023-03-06T07:29:01.930Z,100095.06
2023-03-06T07:31:30.259Z,100100.91
2023-03-06T07:33:56.974Z,100098.72
2023-03-06T07:36:23.903Z,100095.81
2023-03-06T07:38:50.603Z,100095.44
2023-03-06T07:41:17.273Z,100091.47
2023-03-06T07:43:45.666Z,100091.91
2023-03-06T07:46:13.278Z,100091.44
2023-03-06T07:48:42.242Z,100097.28
2023-03-06T07:51:14.306Z,100098.84
2023-03-06T07:53:41.243Z,100101.28
2023-03-06T07:56:08.724Z,100094.09
2023-03-06T07:58:35.947Z,100095.59
2023-03-06T08:01:07.239Z,100095.34
2023-03-06T08:03:34.274Z,100094.13
2023-03-06T08:06:11.095Z,100094.59
2023-03-06T08:08:38.963Z,100097.78
2023-03-06T08:11:06.032Z,100092.16
2023-03-06T08:13:33.261Z,100097.25
2023-03-06T08:15:59.931Z,100098.69
2023-03-06T08:18:26.856Z,100095.56
2023-03-06T08:21:01.728Z,100092.38
2023-03-06T08:23:29.765Z,100100.84
2023-03-06T08:25:57.419Z,100092.63
2023-03-06T08:28:24.100Z,100098.56
2023-03-06T08:30:50.703Z,100109.72
2023-03-06T08:33:17.513Z,100108.34
2023-03-06T08:35:44.180Z,100117.69
2023-03-06T08:38:10.806Z,100109.31
2023-03-06T08:40:38.817Z,100110.03
2023-03-06T08:43:05.422Z,100113.53
2023-03-06T08:45:32.024Z,100110.75
2023-03-06T08:47:58.641Z,100108.81
2023-03-06T08:50:25.340Z,100110.63
2023-03-06T08:52:51.897Z,100104.44
2023-03-06T08:55:18.731Z,100109.66
2023-03-06T08:57:47.045Z,100107.09
2023-03-06T09:00:15.046Z,100114.41
2023-03-06T09:02:41.708Z,100106.38
2023-03-06T09:05:09.120Z,100114.28
2023-03-06T09:07:35.802Z,100110.50
2023-03-06T09:10:02.784Z,100114.75
2023-03-06T09:12:30.820Z,100119.00
2023-03-06T09:15:05.012Z,100122.41
2023-03-06T09:17:31.696Z,100124.94
2023-03-06T09:19:58.297Z,100115.94
2023-03-06T09:22:25.155Z,100116.66
2023-03-06T09:24:51.789Z,100116.78
2023-03-06T09:27:18.588Z,100115.94
2023-03-06T09:29:45.262Z,100113.16
2023-03-06T09:32:13.298Z,100116.66
2023-03-06T09:34:40.154Z,100118.22
2023-03-06T09:37:06.719Z,100118.97
2023-03-06T09:39:33.380Z,100125.03
2023-03-06T09:42:00.110Z,100120.25
2023-03-06T09:44:29.314Z,100119.44
2023-03-06T09:47:10.741Z,100112.13
2023-03-06T09:49:47.086Z,100121.84
2023-03-06T09:52:35.234Z,100120.16
2023-03-06T09:55:11.844Z,100115.75
2023-03-06T09:57:42.845Z,100123.78
2023-03-06T10:00:15.257Z,100128.16
2023-03-06T10:02:45.935Z,100123.66
2023-03-06T10:05:19.589Z,100122.81
2023-03-06T10:07:50.451Z,100130.97
2023-03-06T10:10:20.288Z,100124.53
2023-03-06T10:12:53.649Z,100129.88
2023-03-06T10:15:22.361Z,100138.59
2023-03-06T10:17:49.174Z,100134.69
2023-03-06T10:20:19.784Z,100127.41
2023-03-06T10:23:03.076Z,100123.75
2023-03-06T10:25:36.713Z,100129.13
2023-03-06T10:28:14.245Z,100122.06
2023-03-06T10:30:47.033Z,100127.66
2023-03-06T10:33:22.358Z,100130.59
2023-03-06T10:35:52.981Z,100128.75
2023-03-06T10:38:21.885Z,100130.59
2023-03-06T10:40:59.360Z,100135.69
2023-03-06T10:43:26.317Z,100128.38
2023-03-06T10:45:53.797Z,100125.47
2023-03-06T10:48:23.885Z,100122.06
2023-03-06T10:50:52.772Z,100132.50
2023-03-06T10:53:22.913Z,100125.06
2023-03-06T10:55:57.987Z,100126.38
2023-03-06T10:58:27.559Z,100127.09
2023-03-06T11:01:02.788Z,100126.00
2023-03-06T11:03:29.731Z,100124.63
2023-03-06T11:06:01.928Z,100123.38
2023-03-06T11:08:28.868Z,100127.50
2023-03-06T11:10:57.991Z,100125.56
2023-03-06T11:13:26.710Z,100119.94
2023-03-06T11:16:01.155Z,100119.41
2023-03-06T11:18:30.427Z,100112.56
2023-03-06T11:20:58.546Z,100116.38
2023-03-06T11:23:35.176Z,100113.91
2023-03-06T11:26:09.053Z,100117.44
2023-03-06T11:28:40.217Z,100112.06
2023-03-06T11:31:11.696Z,100112.06
2023-03-06T11:33:42.823Z,100109.00
2023-03-06T11:36:15.657Z,100103.63
2023-03-06T11:38:46.499Z,100103.13
2023-03-06T11:41:19.035Z,100101.72
2023-03-06T11:43:55.082Z,100099.50
2023-03-06T11:46:26.356Z,100104.44
2023-03-06T11:48:58.159Z,100101.94
2023-03-06T11:51:29.062Z,100098.72
2023-03-06T11:53:58.593Z,100102.72
2023-03-06T11:56:35.517Z,100091.59
2023-03-06T11:59:12.936Z,100097.22
2023-03-06T12:01:47.265Z,100099.22
2023-03-06T12:04:34.035Z,100096.72
2023-03-06T12:07:17.616Z,100085.44
2023-03-06T12:09:45.694Z,100083.19
2023-03-06T12:12:34.072Z,100081.94
2023-03-06T12:15:35.358Z,100081.50
2023-03-06T12:18:18.140Z,100082.78
2023-03-06T12:20:55.756Z,100085.19
2023-03-06T12:23:36.959Z,100082.81
2023-03-06T12:26:17.520Z,100077.44
2023-03-06T12:29:00.618Z,100078.56
2023-03-06T12:31:43.511Z,100084.25
2023-03-06T12:34:26.090Z,100073.69
2023-03-06T12:37:01.234Z,100073.91
2023-03-06T12:39:43.282Z,100076.59
2023-03-06T12:42:25.961Z,100076.34
2023-03-06T12:45:21.106Z,100079.03
2023-03-06T12:47:52.250Z,100079.44
2023-03-06T12:50:23.440Z,100077.91
2023-03-06T12:52:51.805Z,100069.00
2023-03-06T12:55:24.345Z,100069.56
2023-03-06T12:57:52.271Z,100076.31
2023-03-06T13:01:04.724Z,100074.63
2023-03-06T13:03:44.938Z,100067.28
2023-03-06T13:06:51.465Z,100066.38
2023-03-06T13:09:23.444Z,100059.59
2023-03-06T13:12:18.301Z,100052.81
2023-03-06T13:14:54.742Z,100047.66
2023-03-06T13:17:34.070Z,100047.09
2023-03-06T13:20:28.051Z,100048.19
2023-03-06T13:22:54.641Z,100041.69
2023-03-06T13:25:48.564Z,100031.50
2023-03-06T13:28:38.916Z,100043.63
2023-03-06T13:31:10.595Z,100037.41
2023-03-06T13:33:59.386Z,100044.53
2023-03-06T13:36:31.668Z,100038.06
2023-03-06T13:39:08.809Z,100042.06
2023-03-06T13:41:52.964Z,100042.38
2023-03-06T13:44:42.158Z,100039.25
2023-03-06T13:47:39.701Z,100038.94
2023-03-06T13:50:35.334Z,100042.28
2023-03-06T13:53:35.328Z,100041.53
2023-03-06T13:56:26.869Z,100042.47
2023-03-06T13:59:14.089Z,100039.50
2023-03-06T14:01:53.566Z,100033.97
2023-03-06T14:04:33.719Z,100033.69
2023-03-06T14:07:20.071Z,100033.63
2023-03-06T14:09:53.345Z,100032.19
2023-03-06T14:12:23.848Z,100027.91
2023-03-06T14:14:54.633Z,100028.88
2023-03-06T14:17:29.121Z,100024.03
2023-03-06T14:19:58.294Z,100024.91
2023-03-06T14:22:25.274Z,100025.50
2023-03-06T14:24:56.346Z,100029.50
2023-03-06T14:27:39.008Z,100021.97
2023-03-06T14:30:08.265Z,100028.19
2023-03-06T14:32:38.296Z,100024.88
2023-03-06T14:35:05.800Z,100029.03
2023-03-06T14:37:36.505Z,100026.16
2023-03-06T14:40:09.480Z,100017.69
2023-03-06T14:42:36.106Z,100024.75
2023-03-06T14:45:14.363Z,100018.22
2023-03-06T14:47:43.028Z,100011.72
2023-03-06T14:50:23.913Z,100021.75
2023-03-06T14:52:54.147Z,100018.53
2023-03-06T14:55:23.728Z,100017.69
2023-03-06T14:57:56.600Z,100018.84
2023-03-06T15:00:26.815Z,100014.75
2023-03-06T15:02:55.793Z,100018.56
2023-03-06T15:05:27.819Z,100017.16
2023-03-06T15:07:57.902Z,100024.53
2023-03-06T15:10:26.543Z,100022.84
2023-03-06T15:12:53.239Z,100017.03
2023-03-06T15:15:29.357Z,100023.56
2023-03-06T15:17:57.517Z,100022.88
2023-03-06T15:20:42.770Z,100019.22
2023-03-06T15:23:21.890Z,100011.59
2023-03-06T15:25:54.488Z,100012.88
2023-03-06T15:28:31.964Z,100014.88
2023-03-06T15:31:21.054Z,100017.84
2023-03-06T15:34:23.786Z,100014.59
2023-03-06T15:36:53.350Z,100014.19
2023-03-06T15:39:32.075Z,100013.03
2023-03-06T15:41:59.878Z,100017.53
2023-03-06T15:44:27.172Z,100023.91
2023-03-06T15:46:59.213Z,100019.25
2023-03-06T15:49:30.780Z,100018.41
2023-03-06T15:51:57.432Z,100014.72
2023-03-06T15:54:24.105Z,100011.91
2023-03-06T15:56:50.817Z,100018.09
2023-03-06T15:59:23.067Z,100015.09
2023-03-06T16:01:50.444Z,100018.47
2023-03-06T16:04:17.460Z,100015.66
2023-03-06T16:06:45.921Z,100019.72
2023-03-06T16:09:13.429Z,100017.44
2023-03-06T16:11:44.134Z,100007.13
2023-03-06T16:14:21.777Z,100008.28
2023-03-06T16:16:48.819Z,100012.91
2023-03-06T16:19:26.006Z,100008.69
2023-03-06T16:21:55.256Z,100010.63
2023-03-06T16:24:22.002Z,100010.06
2023-03-06T16:26:50.478Z,100011.31
2023-03-06T16:29:19.413Z,100007.22
2023-03-06T16:31:46.267Z,100001.56
2023-03-06T16:34:13.164Z,100002.94
2023-03-06T16:36:40.535Z,99998.13
2023-03-06T16:39:13.512Z,100007.69
2023-03-06T16:41:40.205Z,100001.19
2023-03-06T16:44:07.082Z,100009.72
2023-03-06T16:46:37.230Z,100013.19
2023-03-06T16:49:03.817Z,100022.75
2023-03-06T16:51:30.356Z,100016.34
2023-03-06T16:53:57.061Z,100017.97
2023-03-06T16:56:25.256Z,100024.81
2023-03-06T16:58:51.971Z,100022.09
2023-03-06T17:01:19.487Z,100023.69
2023-03-06T17:03:47.081Z,100019.97
2023-03-06T17:06:15.160Z,100020.59
2023-03-06T17:08:41.892Z,100023.06
2023-03-06T17:11:08.801Z,100021.16
2023-03-06T17:13:37.186Z,100023.63
2023-03-06T17:16:04.093Z,100034.81
2023-03-06T17:18:31.415Z,100029.25
2023-03-06T17:20:58.373Z,100029.97
2023-03-06T17:23:26.725Z,100032.44
2023-03-06T17:26:02.256Z,100034.03
2023-03-06T17:28:28.844Z,100035.63
2023-03-06T17:30:56.882Z,100047.78
2023-03-06T17:33:23.598Z,100048.38
2023-03-06T17:35:50.263Z,100042.66
2023-03-06T17:38:17.012Z,100051.16
2023-03-06T17:40:43.650Z,100048.97
2023-03-06T17:43:10.229Z,100059.28
2023-03-06T17:45:36.877Z,100057.22
2023-03-06T17:48:05.202Z,100067.38
2023-03-06T17:50:31.976Z,100059.03
2023-03-06T17:52:58.616Z,100063.00
2023-03-06T17:55:25.269Z,100055.47
2023-03-06T17:57:51.965Z,100061.28
2023-03-06T18:00:19.597Z,100063.44
2023-03-06T18:02:46.293Z,100053.13
2023-03-06T18:05:14.535Z,100057.09
2023-03-06T18:07:41.262Z,100054.78
2023-03-06T18:10:08.350Z,100056.97
2023-03-06T18:12:35.052Z,100061.66
2023-03-06T18:15:02.418Z,100059.34
2023-03-06T18:17:29.230Z,100057.88
2023-03-06T18:19:56.065Z,100059.94
2023-03-06T18:22:24.427Z,100066.47
2023-03-06T18:24:51.120Z,100055.28
2023-03-06T18:27:17.893Z,100056.47
2023-03-06T18:29:44.571Z,100059.38
2023-03-06T18:32:11.252Z,100065.91
2023-03-06T18:34:37.903Z,100066.97
2023-03-06T18:37:04.646Z,100058.50
2023-03-06T18:39:32.731Z,100056.88
2023-03-06T18:41:59.411Z,100066.91
2023-03-06T18:44:26.189Z,100061.94
2023-03-06T18:46:52.824Z,100063.84
2023-03-06T18:49:19.556Z,100066.72
2023-03-06T18:51:46.449Z,100063.44
2023-03-06T18:54:13.261Z,100068.16
2023-03-06T18:56:41.356Z,100067.53
2023-03-06T18:59:08.093Z,100058.78
2023-03-06T19:01:35.119Z,100060.84
2023-03-06T19:04:03.191Z,100062.88
2023-03-06T19:06:30.316Z,100053.28
2023-03-06T19:08:57.490Z,100056.19
2023-03-06T19:11:25.560Z,100054.59
2023-03-06T19:13:53.862Z,100041.50
2023-03-06T19:16:22.721Z,100054.16
2023-03-06T19:18:49.732Z,100050.03
2023-03-06T19:21:18.785Z,100051.13
2023-03-06T19:23:45.590Z,100052.25
2023-03-06T19:26:12.772Z,100054.19
2023-03-06T19:28:41.110Z,100058.75
2023-03-06T19:31:10.852Z,100050.16
2023-03-06T19:33:37.756Z,100046.78
2023-03-06T19:36:05.379Z,100049.53
2023-03-06T19:38:32.153Z,100048.91
2023-03-06T19:40:59.061Z,100047.19
2023-03-06T19:43:25.957Z,100055.28
2023-03-06T19:45:52.705Z,100046.56
2023-03-06T19:48:22.729Z,100046.66
2023-03-06T19:50:49.672Z,100046.91
2023-03-06T19:53:16.431Z,100045.31
2023-03-06T19:55:43.562Z,100052.44
2023-03-06T19:58:10.382Z,100047.22
2023-03-06T20:00:37.654Z,100048.28
2023-03-06T20:03:04.546Z,100046.59
2023-03-06T20:05:33.134Z,100047.53
2023-03-06T20:07:59.940Z,100043.31
2023-03-06T20:10:26.835Z,100039.78
2023-03-06T20:12:53.825Z,100039.16
2023-03-06T20:15:20.536Z,100032.13
2023-03-06T20:17:47.243Z,100031.28
2023-03-06T20:20:14.103Z,100031.50
2023-03-06T20:22:42.278Z,100027.00
2023-03-06T20:25:09.257Z,100030.66
2023-03-06T20:27:36.007Z,100025.41
2023-03-06T20:30:02.942Z,100021.91
2023-03-06T20:32:29.787Z,100021.91
2023-03-06T20:34:56.468Z,100023.72
2023-03-06T20:37:23.229Z,100019.38
2023-03-06T20:39:51.836Z,100013.31
2023-03-06T20:42:18.781Z,100014.25
2023-03-06T20:44:45.448Z,100015.22
2023-03-06T20:47:12.205Z,100003.84
2023-03-06T20:49:38.989Z,100005.66
2023-03-06T20:52:05.951Z,100007.56
2023-03-06T20:54:32.672Z,100005.97
2023-03-06T20:57:01.071Z,99998.09
2023-03-06T20:59:27.839Z,99997.38
2023-03-06T21:01:54.594Z,99999.25
2023-03-06T21:04:21.473Z,100001.06
2023-03-06T21:06:48.100Z,99995.97
2023-03-06T21:09:16.318Z,99999.59
2023-03-06T21:11:43.041Z,99997.16
2023-03-06T21:14:11.033Z,99998.09
2023-03-06T21:16:37.758Z,99988.53
2023-03-06T21:19:04.627Z,99990.34
2023-03-06T21:21:33.104Z,99985.97
2023-03-06T21:24:01.070Z,99985.97
2023-03-06T21:26:30.159Z,99984.28
2023-03-06T21:28:57.592Z,99977.28
2023-03-06T21:31:26.534Z,99973.78
2023-03-06T21:33:53.118Z,99972.91
2023-03-06T21:36:20.429Z,99971.22
2023-03-06T21:38:48.571Z,99965.16
2023-03-06T21:41:16.784Z,99968.78
2023-03-06T21:43:44.023Z,99971.44
2023-03-06T21:46:11.091Z,99968.78
2023-03-06T21:48:39.327Z,99970.66
2023-03-06T21:51:08.376Z,99972.59
2023-03-06T21:53:35.268Z,99960.47
2023-03-06T21:56:02.304Z,99965.03
2023-03-06T21:58:29.472Z,99965.25
2023-03-06T22:00:56.216Z,99964.50
2023-03-06T22:03:22.920Z,99956.66
2023-03-06T22:05:50.993Z,99951.53
2023-03-06T22:08:18.307Z,99957.91
2023-03-06T22:10:46.476Z,99951.03
2023-03-06T22:13:14.262Z,99952.84
2023-03-06T22:15:49.304Z,99948.56
2023-03-06T22:18:15.860Z,99939.88
2023-03-06T22:20:42.479Z,99936.44
2023-03-06T22:23:10.420Z,99919.88
2023-03-06T22:25:37.180Z,99920.09
2023-03-06T22:28:03.822Z,99911.38
2023-03-06T22:30:30.469Z,99916.81
2023-03-06T22:32:57.083Z,99910.75
2023-03-06T22:35:23.731Z,99905.66
2023-03-06T22:37:50.367Z,99898.72
2023-03-06T22:40:18.575Z,99894.38
2023-03-06T22:42:45.209Z,99891.84
2023-03-06T22:45:12.080Z,99891.19
2023-03-06T22:47:39.227Z,99884.19
2023-03-06T22:50:06.998Z,99885.13
2023-03-06T22:52:33.665Z,99879.91
2023-03-06T22:55:00.232Z,99885.34
2023-03-06T22:57:28.351Z,99881.94
2023-03-06T22:59:54.901Z,99880.44
2023-03-06T23:02:21.540Z,99871.84
2023-03-06T23:04:49.055Z,99873.75
2023-03-06T23:07:15.764Z,99874.81
2023-03-06T23:09:42.361Z,99875.97
2023-03-06T23:12:09.194Z,99869.09
2023-03-06T23:14:37.368Z,99863.88
2023-03-06T23:17:04.076Z,99861.44
2023-03-06T23:19:31.202Z,99859.81
2023-03-06T23:21:57.793Z,99856.44
2023-03-06T23:24:24.539Z,99848.56
2023-03-06T23:26:51.151Z,99846.78
2023-03-06T23:29:17.880Z,99853.03
2023-03-06T23:31:45.849Z,99837.19
2023-03-06T23:34:12.518Z,99846.16
2023-03-06T23:36:39.148Z,99841.78
2023-03-06T23:39:05.739Z,99839.34
2023-03-06T23:41:32.346Z,99842.09
2023-03-06T23:43:58.911Z,99841.44
2023-03-06T23:46:25.745Z,99835.38
2023-03-06T23:48:53.933Z,99835.50
2023-03-06T23:51:22.214Z,99832.94
2023-03-06T23:53:54.355Z,99823.41
2023-03-06T23:56:21.008Z,99822.56
2023-03-06T23:58:47.667Z,99829.66
